createdAt,value
2022-09-15T00:00:01.541Z,104.81
2022-09-15T00:05:01.904Z,104.71
2022-09-15T00:10:01.404Z,104.77
2022-09-15T00:15:01.957Z,104.83
2022-09-15T00:20:01.728Z,104.81
2022-09-15T00:25:01.375Z,104.72
2022-09-15T00:30:01.252Z,104.88
2022-09-15T00:35:02.239Z,104.81
2022-09-15T00:40:01.666Z,104.83
2022-09-15T00:45:01.925Z,104.74
2022-09-15T00:50:01.336Z,104.87
2022-09-15T00:55:01.417Z,104.72
2022-09-15T01:00:01.775Z,104.67
2022-09-15T01:05:01.950Z,104.72
2022-09-15T01:10:01.473Z,104.84
2022-09-15T01:15:01.426Z,104.69
2022-09-15T01:20:01.535Z,104.66
2022-09-15T01:25:01.346Z,104.69
2022-09-15T01:30:01.186Z,104.71
2022-09-15T01:35:02.203Z,104.55
2022-09-15T01:40:02.404Z,104.57
2022-09-15T01:45:01.367Z,104.55
2022-09-15T01:50:02.482Z,104.45
2022-09-15T01:55:01.157Z,104.49
2022-09-15T02:00:02.280Z,104.68
2022-09-15T02:05:02.441Z,104.64
2022-09-15T02:10:01.310Z,104.49
2022-09-15T02:15:01.261Z,104.35
2022-09-15T02:20:02.062Z,104.52
2022-09-15T02:25:01.352Z,104.42
2022-09-15T02:30:01.270Z,104.54
2022-09-15T02:35:02.082Z,104.41
2022-09-15T02:40:01.844Z,104.44
2022-09-15T02:45:01.659Z,104.35
2022-09-15T02:50:02.050Z,104.29
2022-09-15T02:55:01.486Z,104.36
2022-09-15T03:00:01.846Z,104.35
2022-09-15T03:05:01.305Z,104.34
2022-09-15T03:10:01.579Z,104.34
2022-09-15T03:15:01.789Z,104.43
2022-09-15T03:20:01.755Z,104.39
2022-09-15T03:25:01.187Z,104.43
2022-09-15T03:30:01.436Z,104.45
2022-09-15T03:35:02.223Z,104.37
2022-09-15T03:40:01.608Z,104.38
2022-09-15T03:45:01.405Z,104.29
2022-09-15T03:50:01.189Z,104.29
2022-09-15T03:55:01.554Z,104.12
2022-09-15T04:00:01.836Z,104.04
2022-09-15T04:05:01.567Z,103.9
2022-09-15T04:10:01.958Z,103.78
2022-09-15T04:15:01.456Z,103.62
2022-09-15T04:20:02.010Z,103.68
2022-09-15T04:25:01.424Z,103.65
2022-09-15T04:30:01.660Z,103.7
2022-09-15T04:35:01.885Z,103.8
2022-09-15T04:40:02.238Z,103.72
2022-09-15T04:45:01.673Z,103.79
2022-09-15T04:50:01.686Z,103.84
2022-09-15T04:55:01.352Z,103.97
2022-09-15T05:00:01.796Z,104.02
2022-09-15T05:05:02.111Z,104.18
2022-09-15T05:10:01.531Z,104.21
2022-09-15T05:15:01.678Z,103.91
2022-09-15T05:20:01.685Z,103.87
2022-09-15T05:25:01.521Z,103.99
2022-09-15T05:30:32.065Z,103.87
2022-09-15T05:35:03.751Z,103.86
2022-09-15T05:40:05.176Z,103.88
2022-09-15T05:45:01.754Z,103.9
2022-09-15T05:50:01.240Z,104.15
2022-09-15T05:55:01.323Z,104.2
2022-09-15T06:00:01.830Z,104.58
2022-09-15T06:05:01.420Z,104.55
2022-09-15T06:10:01.268Z,104.32
2022-09-15T06:15:01.617Z,104.42
2022-09-15T06:20:01.369Z,104.25
2022-09-15T06:25:01.984Z,104.26
2022-09-15T06:30:01.421Z,104.34
2022-09-15T06:35:01.816Z,104.23
2022-09-15T06:40:01.679Z,104.07
2022-09-15T06:45:01.427Z,104.13
2022-09-15T06:50:02.007Z,104.26
2022-09-15T06:55:01.643Z,104.03
2022-09-15T07:00:01.722Z,104.1
2022-09-15T07:05:01.727Z,104.19
2022-09-15T07:10:01.141Z,104.27
2022-09-15T07:15:02.860Z,104.07
2022-09-15T07:20:01.357Z,104.29
2022-09-15T07:25:02.050Z,104.16
2022-09-15T07:30:01.528Z,104.39
2022-09-15T07:35:02.103Z,104.24
2022-09-15T07:40:01.402Z,104.2
2022-09-15T07:45:01.515Z,104.16
2022-09-15T07:50:01.865Z,103.73
2022-09-15T07:55:01.297Z,104.16
2022-09-15T08:00:01.708Z,104.33
2022-09-15T08:05:01.320Z,104.23
2022-09-15T08:10:01.449Z,103.91
2022-09-15T08:15:01.906Z,104.2
2022-09-15T08:20:01.776Z,103.83
2022-09-15T08:25:01.791Z,103.91
2022-09-15T08:30:01.373Z,103.77
2022-09-15T08:35:01.929Z,103.81
2022-09-15T08:40:02.058Z,103.65
2022-09-15T08:45:02.098Z,103.58
2022-09-15T08:50:01.740Z,103.46
2022-09-15T08:55:01.881Z,103.4
2022-09-15T09:00:02.104Z,102.5
2022-09-15T09:05:01.770Z,102.35
2022-09-15T09:10:01.798Z,102.07
2022-09-15T09:15:02.064Z,102.73
2022-09-15T09:20:01.954Z,102.29
2022-09-15T09:25:11.534Z,101.92
2022-09-15T09:30:01.575Z,102.01
2022-09-15T09:35:01.590Z,100.99
2022-09-15T09:40:02.167Z,100.6
2022-09-15T09:45:01.356Z,99.39
2022-09-15T09:50:01.404Z,99.67
2022-09-15T09:55:01.814Z,98.87
2022-09-15T10:00:01.174Z,98.7
2022-09-15T10:05:02.176Z,99.4
2022-09-15T10:10:01.153Z,98.98
2022-09-15T10:15:01.777Z,97.89
2022-09-15T10:20:01.415Z,95.96
2022-09-15T10:25:01.750Z,97.59
2022-09-15T10:30:01.542Z,97.24
2022-09-15T10:35:01.598Z,98.35
2022-09-15T10:40:01.529Z,95.77
2022-09-15T10:45:01.228Z,95.23
2022-09-15T10:50:01.647Z,96.34
2022-09-15T10:55:02.034Z,95.6
2022-09-15T11:00:01.199Z,94.17
2022-09-15T11:05:01.422Z,92.21
2022-09-15T11:10:01.204Z,90.92
2022-09-15T11:15:01.979Z,94.17
2022-09-15T11:20:01.839Z,93.41
2022-09-15T11:25:01.632Z,93.09
2022-09-15T11:30:01.217Z,91.32
2022-09-15T11:35:01.393Z,92.87
2022-09-15T11:40:01.521Z,92.38
2022-09-15T11:45:01.414Z,93.35
2022-09-15T11:50:01.617Z,88.04
2022-09-15T11:55:01.643Z,91.54
2022-09-15T12:00:01.748Z,93.15
2022-09-15T12:05:01.543Z,87.58
2022-09-15T12:10:01.485Z,89.36
2022-09-15T12:15:01.315Z,89.07
2022-09-15T12:20:01.924Z,89.07
2022-09-15T12:30:02.142Z,87.69
2022-09-15T12:35:01.350Z,86.12
2022-09-15T12:40:01.617Z,86.75
2022-09-15T12:45:01.724Z,85.56
2022-09-15T12:50:01.737Z,85.75
2022-09-15T12:55:01.889Z,87.3
2022-09-15T13:00:01.802Z,85.91
2022-09-15T13:05:01.343Z,86.46
2022-09-15T13:10:01.313Z,86.86
2022-09-15T13:15:01.943Z,83.47
2022-09-15T13:20:01.590Z,82.58
2022-09-15T13:25:02.195Z,85.4
2022-09-15T13:30:01.294Z,82.14
2022-09-15T13:35:09.847Z,81.73
2022-09-15T13:40:02.196Z,81.67
2022-09-15T13:45:01.324Z,83.98
2022-09-15T13:50:02.004Z,83.48
2022-09-15T13:55:01.783Z,84.48
2022-09-15T14:00:01.739Z,83.15
2022-09-15T14:05:02.077Z,83.61
2022-09-15T14:10:01.580Z,85.82
2022-09-15T14:15:01.937Z,86.27
2022-09-15T14:20:01.622Z,83.81
2022-09-15T14:25:02.044Z,83.95
2022-09-15T14:30:01.509Z,85.63
2022-09-15T14:35:01.971Z,85.41
2022-09-15T14:40:01.531Z,86.48
2022-09-15T14:45:58.142Z,88.43
2022-09-15T14:50:01.929Z,84.27
2022-09-15T14:55:01.921Z,86.3
2022-09-15T15:00:01.408Z,82.62
2022-09-15T15:05:01.260Z,85.79
2022-09-15T15:10:02.040Z,86.75
2022-09-15T15:15:01.748Z,87.92
2022-09-15T15:20:01.676Z,86.05
2022-09-15T15:25:01.605Z,89.04
2022-09-15T15:30:01.518Z,92.41
2022-09-15T15:35:01.717Z,94.12
2022-09-15T15:40:01.816Z,94.64
2022-09-15T15:45:02.112Z,94.82
2022-09-15T15:50:12.882Z,95.63
2022-09-15T15:55:01.320Z,96.22
2022-09-15T16:00:01.317Z,96.61
2022-09-15T16:05:01.870Z,96.93
2022-09-15T16:10:01.671Z,97.71
2022-09-15T16:15:01.175Z,98.06
2022-09-15T16:20:01.430Z,97.3
2022-09-15T16:25:01.893Z,96.73
2022-09-15T16:30:01.937Z,96.38
2022-09-15T16:35:01.979Z,96.01
2022-09-15T16:40:01.758Z,96.11
2022-09-15T16:45:01.505Z,95.5
2022-09-15T16:50:01.414Z,95.52
2022-09-15T16:55:01.968Z,95.6
2022-09-15T17:00:01.995Z,96.05
2022-09-15T17:05:02.058Z,95.86
2022-09-15T17:10:02.051Z,95.11
2022-09-15T17:15:01.677Z,95.54
2022-09-15T17:20:01.224Z,95.48
2022-09-15T17:25:02.040Z,94.81
2022-09-15T17:30:01.773Z,95.6
2022-09-15T17:35:01.339Z,94.61
2022-09-15T17:40:01.707Z,94.69
2022-09-15T17:45:01.850Z,94.69
2022-09-15T17:50:01.899Z,94.36
2022-09-15T17:55:01.783Z,92.45
2022-09-15T18:00:01.829Z,93.69
2022-09-15T18:05:01.542Z,92.48
2022-09-15T18:10:01.364Z,92.83
2022-09-15T18:15:01.545Z,91.89
2022-09-15T18:20:01.913Z,91.81
2022-09-15T18:25:01.905Z,92.4
2022-09-15T18:30:01.517Z,92.12
2022-09-15T18:35:01.822Z,91.82
2022-09-15T18:40:01.489Z,92.93
2022-09-15T18:45:02.036Z,92.82
2022-09-15T18:50:01.725Z,92.31
2022-09-15T18:55:01.239Z,92.8
2022-09-15T19:00:01.805Z,93.23
2022-09-15T19:05:01.948Z,92.76
2022-09-15T19:10:01.478Z,93.03
2022-09-15T19:15:01.281Z,91.59
2022-09-15T19:20:02.005Z,90.34
2022-09-15T19:25:01.910Z,90.23
2022-09-15T19:30:01.423Z,90.06
2022-09-15T19:35:01.666Z,91.2
2022-09-15T19:40:01.623Z,91.73
2022-09-15T19:45:01.295Z,91.64
2022-09-15T19:50:01.634Z,92.48
2022-09-15T19:55:01.811Z,92.09
2022-09-15T20:00:02.044Z,91.97
2022-09-15T20:05:01.377Z,91.17
2022-09-15T20:10:01.442Z,91.48
2022-09-15T20:15:01.156Z,91.37
2022-09-15T20:20:01.887Z,90.93
2022-09-15T20:25:01.515Z,90.71
2022-09-15T20:30:01.665Z,90.29
2022-09-15T20:35:01.215Z,89.79
2022-09-15T20:40:01.751Z,89.44
2022-09-15T20:45:01.753Z,90.01
2022-09-15T20:50:01.858Z,89.32
2022-09-15T20:55:01.520Z,89.42
2022-09-15T21:00:01.203Z,88.64
2022-09-15T21:05:02.011Z,88.88
2022-09-15T21:10:02.010Z,88.2
2022-09-15T21:15:01.980Z,88.45
2022-09-15T21:20:01.575Z,89.4
2022-09-15T21:25:01.667Z,88.64
2022-09-15T21:30:01.238Z,88.9
2022-09-15T21:35:02.122Z,88.9
2022-09-15T21:40:01.655Z,89.09
2022-09-15T21:45:02.080Z,89.41
2022-09-15T21:50:01.445Z,88.62
2022-09-15T21:55:01.132Z,88.97
2022-09-15T22:00:01.308Z,89.27
2022-09-15T22:05:01.800Z,88.65
2022-09-15T22:10:01.942Z,88.04
2022-09-15T22:15:01.156Z,89.13
2022-09-15T22:20:02.029Z,89.84
2022-09-15T22:25:01.559Z,89.62
2022-09-15T22:30:02.106Z,89.1
2022-09-15T22:35:01.734Z,90.3
2022-09-15T22:40:01.790Z,89.16
2022-09-15T22:45:01.164Z,90.09
2022-09-15T22:50:01.581Z,90.22
2022-09-15T22:55:01.633Z,90.65
2022-09-15T23:00:01.584Z,90.97
2022-09-15T23:05:01.763Z,90.92
2022-09-15T23:10:01.634Z,90.92
2022-09-15T23:20:01.443Z,91.43
2022-09-15T23:25:01.776Z,90.96
2022-09-15T23:30:02.093Z,90.47
2022-09-15T23:35:01.672Z,91.62
2022-09-15T23:40:01.340Z,91.18
2022-09-15T23:45:01.317Z,91.42
2022-09-15T23:50:01.351Z,91.09
2022-09-15T23:55:01.323Z,91.63
